createdAt,value
2022-09-07T00:00:32.274Z,60.91
2022-09-07T00:01:11.141Z,60.96
2022-09-07T00:01:44.337Z,61.21
2022-09-07T00:02:17.688Z,61.41
2022-09-07T00:02:51.107Z,61.56
2022-09-07T00:03:24.790Z,61.64
2022-09-07T00:03:58.466Z,61.79
2022-09-07T00:04:32.153Z,61.99
2022-09-07T00:05:06.387Z,62.10
2022-09-07T00:05:47.501Z,62.25
2022-09-07T00:06:20.750Z,62.36
2022-09-07T00:06:53.960Z,62.47
2022-09-07T00:07:27.188Z,62.84
2022-09-07T00:08:00.769Z,62.92
2022-09-07T00:08:34.185Z,62.17
2022-09-07T00:09:07.618Z,60.96
2022-09-07T00:09:41.577Z,59.57
2022-09-07T00:10:14.880Z,57.73
2022-09-07T00:11:00.192Z,56.11
2022-09-07T00:11:33.432Z,55.55
2022-09-07T00:12:06.653Z,54.70
2022-09-07T00:12:40.152Z,54.72
2022-09-07T00:13:13.326Z,54.95
2022-09-07T00:13:49.311Z,55.24
2022-09-07T00:14:22.527Z,55.64
2022-09-07T00:14:55.865Z,56.07
2022-09-07T00:15:29.021Z,56.53
2022-09-07T00:16:29.979Z,56.98
2022-09-07T00:17:03.405Z,57.19
2022-09-07T00:17:37.061Z,57.95
2022-09-07T00:18:10.337Z,58.25
2022-09-07T00:18:46.211Z,58.45
2022-09-07T00:19:20.113Z,58.74
2022-09-07T00:19:53.353Z,58.94
2022-09-07T00:20:26.598Z,59.13
2022-09-07T00:21:05.739Z,59.48
2022-09-07T00:21:39.186Z,59.65
2022-09-07T00:22:12.638Z,60.01
2022-09-07T00:22:46.612Z,60.11
2022-09-07T00:23:19.913Z,60.14
2022-09-07T00:23:54.479Z,60.33
2022-09-07T00:24:27.911Z,60.36
2022-09-07T00:25:01.046Z,60.59
2022-09-07T00:25:40.205Z,60.62
2022-09-07T00:26:16.643Z,60.58
2022-09-07T00:26:49.992Z,60.78
2022-09-07T00:27:23.845Z,61.03
2022-09-07T00:27:57.083Z,61.16
2022-09-07T00:28:31.531Z,61.19
2022-09-07T00:29:05.111Z,61.26
2022-09-07T00:29:38.502Z,61.50
2022-09-07T00:30:11.967Z,61.78
2022-09-07T00:30:45.293Z,61.88
2022-09-07T00:31:21.405Z,62.06
2022-09-07T00:31:54.701Z,62.01
2022-09-07T00:32:28.004Z,62.09
2022-09-07T00:33:01.140Z,62.15
2022-09-07T00:33:34.333Z,62.24
2022-09-07T00:34:07.630Z,62.46
2022-09-07T00:34:41.216Z,62.74
2022-09-07T00:35:14.599Z,62.69
2022-09-07T00:35:47.865Z,62.32
2022-09-07T00:36:23.099Z,61.30
2022-09-07T00:36:56.228Z,60.25
2022-09-07T00:37:29.537Z,58.51
2022-09-07T00:38:02.733Z,56.96
2022-09-07T00:38:36.664Z,55.97
2022-09-07T00:39:10.005Z,55.25
2022-09-07T00:39:43.583Z,55.05
2022-09-07T00:40:16.873Z,55.11
2022-09-07T00:40:50.261Z,55.41
2022-09-07T00:41:24.628Z,55.81
2022-09-07T00:41:57.885Z,56.30
2022-09-07T00:42:31.066Z,56.73
2022-09-07T00:43:06.320Z,57.11
2022-09-07T00:44:19.728Z,57.50
2022-09-07T00:44:55.736Z,57.52
2022-09-07T00:45:29.880Z,58.21
2022-09-07T00:46:05.111Z,58.68
2022-09-07T00:46:38.419Z,58.86
2022-09-07T00:47:21.484Z,59.22
2022-09-07T00:48:03.865Z,59.37
2022-09-07T00:48:55.695Z,59.38
2022-09-07T00:49:29.973Z,59.52
2022-09-07T00:50:09.806Z,59.90
2022-09-07T00:50:56.844Z,59.99
2022-09-07T00:51:39.456Z,60.03
2022-09-07T00:52:14.163Z,60.05
2022-09-07T00:52:53.163Z,60.28
2022-09-07T00:53:33.533Z,60.64
2022-09-07T00:54:12.421Z,61.02
2022-09-07T00:54:49.630Z,61.15
2022-09-07T00:55:23.259Z,61.16
2022-09-07T00:55:58.388Z,61.38
2022-09-07T00:56:35.698Z,61.36
2022-09-07T00:57:09.288Z,61.38
2022-09-07T00:57:48.366Z,61.54
2022-09-07T00:58:22.969Z,61.60
2022-09-07T00:58:56.974Z,61.71
2022-09-07T00:59:37.947Z,61.56
2022-09-07T01:00:12.001Z,61.52
2022-09-07T01:00:46.802Z,61.63
2022-09-07T01:01:20.741Z,61.74
2022-09-07T01:01:54.226Z,61.99
2022-09-07T01:02:28.044Z,61.96
2022-09-07T01:03:03.703Z,61.97
2022-09-07T01:03:42.491Z,62.09
2022-09-07T01:04:17.061Z,62.22
2022-09-07T01:04:54.638Z,62.34
2022-09-07T01:05:45.680Z,62.55
2022-09-07T01:06:23.149Z,64.17
2022-09-07T01:06:57.449Z,63.45
2022-09-07T01:07:31.141Z,62.12
2022-09-07T01:08:05.760Z,60.90
2022-09-07T01:08:39.361Z,59.46
2022-09-07T01:09:18.770Z,57.50
2022-09-07T01:09:52.864Z,56.61
2022-09-07T01:10:31.909Z,55.81
2022-09-07T01:11:05.443Z,55.71
2022-09-07T01:11:39.580Z,55.75
2022-09-07T01:12:13.382Z,56.07
2022-09-07T01:12:46.692Z,56.48
2022-09-07T01:13:19.837Z,56.78
2022-09-07T01:13:54.677Z,57.18
2022-09-07T01:14:41.805Z,57.39
2022-09-07T01:15:15.037Z,57.81
2022-09-07T01:16:12.712Z,58.30
2022-09-07T01:17:01.627Z,58.25
2022-09-07T01:18:04.199Z,58.82
2022-09-07T01:19:01.135Z,59.05
2022-09-07T01:20:12.085Z,59.36
2022-09-07T01:21:26.288Z,59.17
2022-09-07T01:22:36.777Z,59.36
2022-09-07T01:23:33.276Z,59.57
2022-09-07T01:24:28.528Z,59.88
2022-09-07T01:25:22.224Z,60.23
2022-09-07T01:26:30.492Z,60.28
2022-09-07T01:27:35.365Z,60.16
2022-09-07T01:28:25.922Z,60.51
2022-09-07T01:29:08.655Z,61.14
2022-09-07T01:30:08.674Z,61.50
2022-09-07T01:30:51.967Z,61.64
2022-09-07T01:31:45.825Z,62.09
2022-09-07T01:32:51.024Z,62.35
2022-09-07T01:34:05.425Z,64.83
2022-09-07T01:34:39.569Z,66.07
2022-09-07T01:35:29.566Z,60.19
2022-09-07T01:36:21.338Z,59.42
2022-09-07T01:37:13.236Z,56.39
2022-09-07T01:38:21.451Z,54.71
2022-09-07T01:38:59.355Z,54.31
2022-09-07T01:39:47.367Z,54.45
2022-09-07T01:40:41.376Z,54.94
2022-09-07T01:41:20.260Z,55.37
2022-09-07T01:42:01.735Z,56.13
2022-09-07T01:42:45.381Z,56.54
2022-09-07T01:43:45.666Z,56.99
2022-09-07T01:44:27.471Z,57.44
2022-09-07T01:45:03.612Z,58.13
2022-09-07T01:45:41.183Z,58.41
2022-09-07T01:46:23.129Z,58.61
2022-09-07T01:47:07.928Z,58.93
2022-09-07T01:47:48.616Z,59.17
2022-09-07T01:48:23.626Z,59.56
2022-09-07T01:49:05.057Z,59.72
2022-09-07T01:49:40.960Z,59.77
2022-09-07T01:50:38.054Z,59.98
2022-09-07T01:51:13.573Z,59.97
2022-09-07T01:51:50.353Z,60.40
2022-09-07T01:52:35.163Z,60.59
2022-09-07T01:53:22.220Z,60.70
2022-09-07T01:54:01.447Z,60.86
2022-09-07T01:54:55.492Z,61.23
2022-09-07T01:55:40.835Z,61.39
2022-09-07T01:56:42.887Z,61.70
2022-09-07T01:57:22.931Z,61.80
2022-09-07T01:58:09.150Z,62.22
2022-09-07T01:58:49.912Z,62.51
2022-09-07T01:59:28.978Z,63.75
2022-09-07T02:00:14.754Z,63.73
2022-09-07T02:00:55.407Z,63.70
2022-09-07T02:01:40.575Z,64.27
2022-09-07T02:02:19.941Z,65.91
2022-09-07T02:03:00.354Z,58.97
2022-09-07T02:03:45.262Z,56.25
2022-09-07T02:04:28.121Z,54.67
2022-09-07T02:05:10.202Z,53.68
2022-09-07T02:05:58.816Z,53.67
2022-09-07T02:06:38.204Z,54.00
2022-09-07T02:07:25.684Z,54.27
2022-09-07T02:08:05.243Z,54.40
2022-09-07T02:08:46.285Z,54.97
2022-09-07T02:09:38.262Z,55.51
2022-09-07T02:10:17.281Z,55.82
2022-09-07T02:11:02.619Z,56.62
2022-09-07T02:11:45.523Z,56.88
2022-09-07T02:12:35.498Z,57.38
2022-09-07T02:13:40.745Z,57.73
2022-09-07T02:14:30.857Z,57.85
2022-09-07T02:15:20.685Z,58.43
2022-09-07T02:16:00.304Z,58.68
2022-09-07T02:16:37.403Z,59.16
2022-09-07T02:17:34.507Z,59.53
2022-09-07T02:18:10.474Z,59.36
2022-09-07T02:18:50.302Z,59.87
2022-09-07T02:19:27.309Z,60.06
2022-09-07T02:20:15.642Z,60.38
2022-09-07T02:20:53.851Z,60.33
2022-09-07T02:21:34.546Z,60.63
2022-09-07T02:22:14.239Z,60.85
2022-09-07T02:22:53.073Z,61.03
2022-09-07T02:23:31.703Z,61.17
2022-09-07T02:24:11.428Z,61.58
2022-09-07T02:24:51.207Z,61.77
2022-09-07T02:25:33.286Z,62.03
2022-09-07T02:26:14.373Z,62.31
2022-09-07T02:26:53.443Z,62.71
2022-09-07T02:27:39.622Z,63.52
2022-09-07T02:28:22.408Z,64.14
2022-09-07T02:28:56.369Z,62.89
2022-09-07T02:29:31.103Z,60.50
2022-09-07T02:30:06.716Z,59.00
2022-09-07T02:30:40.689Z,57.37
2022-09-07T02:31:15.103Z,56.12
2022-09-07T02:31:49.687Z,55.59
2022-09-07T02:32:23.042Z,55.51
2022-09-07T02:32:56.656Z,55.72
2022-09-07T02:33:30.532Z,56.05
2022-09-07T02:34:04.312Z,56.42
2022-09-07T02:34:37.676Z,56.88
2022-09-07T02:35:11.189Z,57.33
2022-09-07T02:35:44.750Z,57.73
2022-09-07T02:36:20.431Z,58.18
2022-09-07T02:36:54.733Z,58.48
2022-09-07T02:37:29.095Z,58.95
2022-09-07T02:38:04.748Z,59.31
2022-09-07T02:38:38.227Z,59.45
2022-09-07T02:39:11.406Z,59.64
2022-09-07T02:39:44.913Z,59.90
2022-09-07T02:40:18.681Z,60.07
2022-09-07T02:40:53.738Z,60.21
2022-09-07T02:41:30.999Z,60.33
2022-09-07T02:42:04.476Z,60.51
2022-09-07T02:42:39.249Z,60.65
2022-09-07T02:43:12.480Z,60.86
2022-09-07T02:43:46.073Z,60.77
2022-09-07T02:44:28.500Z,60.92
2022-09-07T02:45:05.350Z,61.05
2022-09-07T02:46:19.217Z,61.48
2022-09-07T02:47:07.554Z,61.27
2022-09-07T02:47:50.257Z,61.69
2022-09-07T02:48:47.556Z,62.04
2022-09-07T02:49:29.486Z,62.13
2022-09-07T02:50:34.779Z,62.94
2022-09-07T02:51:18.612Z,65.53
2022-09-07T02:52:13.656Z,64.01
2022-09-07T02:52:58.735Z,63.66
2022-09-07T02:53:48.133Z,60.79
2022-09-07T02:54:40.062Z,58.67
2022-09-07T02:55:39.838Z,55.86
2022-09-07T02:56:18.725Z,54.78
2022-09-07T02:57:19.654Z,54.42
2022-09-07T02:58:14.086Z,54.46
2022-09-07T02:59:07.943Z,55.06
2022-09-07T02:59:59.841Z,55.47
2022-09-07T03:00:38.869Z,56.09
2022-09-07T03:01:47.341Z,56.76
2022-09-07T03:02:30.622Z,56.95
2022-09-07T03:03:22.725Z,58.02
2022-09-07T03:04:14.092Z,58.28
2022-09-07T03:05:06.361Z,58.68
2022-09-07T03:05:51.105Z,59.02
2022-09-07T03:06:41.039Z,59.58
2022-09-07T03:07:22.907Z,59.95
2022-09-07T03:08:18.527Z,60.40
2022-09-07T03:08:55.041Z,60.64
2022-09-07T03:09:32.849Z,61.26
2022-09-07T03:10:07.552Z,61.83
2022-09-07T03:10:41.765Z,62.26
2022-09-07T03:11:15.665Z,62.60
2022-09-07T03:11:49.791Z,63.23
2022-09-07T03:12:23.161Z,63.24
2022-09-07T03:12:56.215Z,62.37
2022-09-07T03:13:30.278Z,61.21
2022-09-07T03:14:18.742Z,59.90
2022-09-07T03:14:51.957Z,59.24
2022-09-07T03:15:27.331Z,56.14
2022-09-07T03:16:00.812Z,55.12
2022-09-07T03:16:34.037Z,54.82
2022-09-07T03:17:08.379Z,54.62
2022-09-07T03:17:42.764Z,54.91
2022-09-07T03:18:15.861Z,55.26
2022-09-07T03:18:49.358Z,55.55
2022-09-07T03:19:22.415Z,55.96
2022-09-07T03:19:55.758Z,56.39
2022-09-07T03:20:28.910Z,56.87
2022-09-07T03:21:01.979Z,57.33
2022-09-07T03:21:36.165Z,57.83
2022-09-07T03:22:09.412Z,58.32
2022-09-07T03:22:42.593Z,58.65
2022-09-07T03:23:15.813Z,58.93
2022-09-07T03:23:51.836Z,59.17
2022-09-07T03:24:25.347Z,59.42
2022-09-07T03:24:58.515Z,59.65
2022-09-07T03:25:31.630Z,59.89
2022-09-07T03:26:05.601Z,60.23
2022-09-07T03:26:42.039Z,60.27
2022-09-07T03:27:15.221Z,60.51
2022-09-07T03:27:48.527Z,60.69
2022-09-07T03:28:21.726Z,60.88
2022-09-07T03:28:54.815Z,60.94
2022-09-07T03:29:27.985Z,61.17
2022-09-07T03:30:01.418Z,61.35
2022-09-07T03:30:34.697Z,61.40
2022-09-07T03:31:07.938Z,61.62
2022-09-07T03:31:41.292Z,61.75
2022-09-07T03:32:14.402Z,61.81
2022-09-07T03:32:47.955Z,61.96
2022-09-07T03:33:21.181Z,62.12
2022-09-07T03:33:55.505Z,62.34
2022-09-07T03:34:28.876Z,62.40
2022-09-07T03:35:03.123Z,62.64
2022-09-07T03:35:36.523Z,63.12
2022-09-07T03:36:09.717Z,63.13
2022-09-07T03:36:43.340Z,62.27
2022-09-07T03:37:16.531Z,61.19
2022-09-07T03:37:49.692Z,60.06
2022-09-07T03:38:22.971Z,58.60
2022-09-07T03:38:56.264Z,56.79
2022-09-07T03:39:29.562Z,55.85
2022-09-07T03:40:04.918Z,55.27
2022-09-07T03:40:38.403Z,55.27
2022-09-07T03:41:12.405Z,55.46
2022-09-07T03:41:45.619Z,55.88
2022-09-07T03:42:19.482Z,56.18
2022-09-07T03:42:52.589Z,56.67
2022-09-07T03:43:26.414Z,57.19
2022-09-07T03:44:05.952Z,57.59
2022-09-07T03:44:39.227Z,57.69
2022-09-07T03:45:12.409Z,58.17
2022-09-07T03:45:45.778Z,58.37
2022-09-07T03:46:19.902Z,58.59
2022-09-07T03:46:53.374Z,58.84
2022-09-07T03:47:26.524Z,59.12
2022-09-07T03:47:59.722Z,59.59
2022-09-07T03:48:35.107Z,59.84
2022-09-07T03:49:08.275Z,60.00
2022-09-07T03:49:41.605Z,60.16
2022-09-07T03:50:14.905Z,60.46
2022-09-07T03:51:02.609Z,60.90
2022-09-07T03:51:35.723Z,61.07
2022-09-07T03:52:09.267Z,61.37
2022-09-07T03:52:42.592Z,61.61
2022-09-07T03:53:15.690Z,61.64
2022-09-07T03:53:48.981Z,61.88
2022-09-07T03:54:23.004Z,62.06
2022-09-07T03:54:56.267Z,62.23
2022-09-07T03:55:29.351Z,62.28
2022-09-07T03:56:05.246Z,62.61
2022-09-07T03:56:38.873Z,63.19
2022-09-07T03:57:12.357Z,62.91
2022-09-07T03:57:45.564Z,62.18
2022-09-07T03:58:18.756Z,61.18
2022-09-07T03:58:53.907Z,59.71
2022-09-07T03:59:27.393Z,58.33
2022-09-07T04:00:00.697Z,56.59
2022-09-07T04:00:34.196Z,55.73
2022-09-07T04:01:10.493Z,55.53
2022-09-07T04:01:43.686Z,55.62
2022-09-07T04:02:17.470Z,55.97
2022-09-07T04:02:50.851Z,56.45
2022-09-07T04:03:24.356Z,56.91
2022-09-07T04:04:02.151Z,57.50
2022-09-07T04:04:35.596Z,58.01
2022-09-07T04:05:09.257Z,58.59
2022-09-07T04:05:42.699Z,59.03
2022-09-07T04:06:16.850Z,59.43
2022-09-07T04:06:50.693Z,59.91
2022-09-07T04:07:24.028Z,60.40
2022-09-07T04:07:57.244Z,60.83
2022-09-07T04:08:33.312Z,61.27
2022-09-07T04:09:08.920Z,61.58
2022-09-07T04:09:42.353Z,61.82
2022-09-07T04:10:15.570Z,62.04
2022-09-07T04:10:48.600Z,62.33
2022-09-07T04:11:21.707Z,62.62
2022-09-07T04:11:55.006Z,63.05
2022-09-07T04:12:28.467Z,63.12
2022-09-07T04:13:01.665Z,62.53
2022-09-07T04:13:36.472Z,61.61
2022-09-07T04:14:11.744Z,60.34
2022-09-07T04:14:45.124Z,58.59
2022-09-07T04:15:18.845Z,56.55
2022-09-07T04:15:53.975Z,55.48
2022-09-07T04:16:28.782Z,55.11
2022-09-07T04:17:02.309Z,54.97
2022-09-07T04:17:35.809Z,55.39
2022-09-07T04:18:08.947Z,55.65
2022-09-07T04:18:42.169Z,55.98
2022-09-07T04:19:15.302Z,56.45
2022-09-07T04:19:48.585Z,57.03
2022-09-07T04:20:21.770Z,57.61
2022-09-07T04:20:59.087Z,58.15
2022-09-07T04:21:33.640Z,58.54
2022-09-07T04:22:06.885Z,59.07
2022-09-07T04:22:40.313Z,59.39
2022-09-07T04:23:13.760Z,59.64
2022-09-07T04:23:46.961Z,59.93
2022-09-07T04:24:20.200Z,60.29
2022-09-07T04:24:53.719Z,60.56
2022-09-07T04:25:27.244Z,60.73
2022-09-07T04:26:00.630Z,61.17
2022-09-07T04:26:36.625Z,61.45
2022-09-07T04:27:09.905Z,61.69
2022-09-07T04:27:43.361Z,61.83
2022-09-07T04:28:18.097Z,62.04
2022-09-07T04:28:51.629Z,62.28
2022-09-07T04:29:24.856Z,62.38
2022-09-07T04:29:58.115Z,62.63
2022-09-07T04:30:35.439Z,63.33
2022-09-07T04:31:08.996Z,63.90
2022-09-07T04:31:42.306Z,62.85
2022-09-07T04:32:16.081Z,61.70
2022-09-07T04:32:49.665Z,60.54
2022-09-07T04:33:23.232Z,59.19
2022-09-07T04:33:57.061Z,57.51
2022-09-07T04:34:30.358Z,56.27
2022-09-07T04:35:04.542Z,55.74
2022-09-07T04:35:39.401Z,55.62
2022-09-07T04:36:12.984Z,55.87
2022-09-07T04:36:46.498Z,56.28
2022-09-07T04:37:19.820Z,56.73
2022-09-07T04:37:52.836Z,57.25
2022-09-07T04:38:26.001Z,57.80
2022-09-07T04:39:01.599Z,58.28
2022-09-07T04:39:35.721Z,58.73
2022-09-07T04:40:09.600Z,59.23
2022-09-07T04:40:44.188Z,59.58
2022-09-07T04:41:18.962Z,59.97
2022-09-07T04:41:52.125Z,60.38
2022-09-07T04:42:25.380Z,60.86
2022-09-07T04:42:59.271Z,61.21
2022-09-07T04:43:33.042Z,61.67
2022-09-07T04:44:06.334Z,61.96
2022-09-07T04:44:39.429Z,62.25
2022-09-07T04:45:12.650Z,62.51
2022-09-07T04:45:45.846Z,62.86
2022-09-07T04:46:27.677Z,63.05
2022-09-07T04:47:01.019Z,63.42
2022-09-07T04:47:34.082Z,61.33
2022-09-07T04:48:07.605Z,60.03
2022-09-07T04:48:40.965Z,58.84
2022-09-07T04:49:14.338Z,57.05
2022-09-07T04:49:53.706Z,56.03
2022-09-07T04:50:26.932Z,55.47
2022-09-07T04:51:11.149Z,55.38
2022-09-07T04:51:44.692Z,55.71
2022-09-07T04:52:17.990Z,56.26
2022-09-07T04:52:51.163Z,56.82
2022-09-07T04:53:24.404Z,57.47
2022-09-07T04:53:59.888Z,57.89
2022-09-07T04:54:33.149Z,58.11
2022-09-07T04:55:07.107Z,58.56
2022-09-07T04:55:40.470Z,58.98
2022-09-07T04:56:16.953Z,59.28
2022-09-07T04:56:50.517Z,59.68
2022-09-07T04:57:26.171Z,60.14
2022-09-07T04:57:59.430Z,60.22
2022-09-07T04:58:32.694Z,60.49
2022-09-07T04:59:06.047Z,60.92
2022-09-07T04:59:39.181Z,61.30
2022-09-07T05:00:12.822Z,61.61
2022-09-07T05:00:46.223Z,61.86
2022-09-07T05:01:23.410Z,62.04
2022-09-07T05:01:56.556Z,62.14
2022-09-07T05:02:29.711Z,62.37
2022-09-07T05:03:02.938Z,62.57
2022-09-07T05:03:38.430Z,62.85
2022-09-07T05:04:11.617Z,63.14
2022-09-07T05:04:44.670Z,62.31
2022-09-07T05:05:17.918Z,61.17
2022-09-07T05:05:51.039Z,59.84
2022-09-07T05:06:24.373Z,58.52
2022-09-07T05:06:57.453Z,56.75
2022-09-07T05:07:30.792Z,55.90
2022-09-07T05:08:04.627Z,55.46
2022-09-07T05:08:41.771Z,55.24
2022-09-07T05:09:14.973Z,55.45
2022-09-07T05:09:48.549Z,55.77
2022-09-07T05:10:21.741Z,56.04
2022-09-07T05:10:56.112Z,56.44
2022-09-07T05:11:30.107Z,56.99
2022-09-07T05:12:03.801Z,57.42
2022-09-07T05:12:37.095Z,57.63
2022-09-07T05:13:10.174Z,58.01
2022-09-07T05:13:43.557Z,58.47
2022-09-07T05:14:16.858Z,58.91
2022-09-07T05:14:50.487Z,59.35
2022-09-07T05:15:23.759Z,59.76
2022-09-07T05:15:57.094Z,60.12
2022-09-07T05:16:31.758Z,60.38
2022-09-07T05:17:05.268Z,60.64
2022-09-07T05:17:38.420Z,60.87
2022-09-07T05:18:13.293Z,61.08
2022-09-07T05:18:54.452Z,61.13
2022-09-07T05:19:28.262Z,61.31
2022-09-07T05:20:01.598Z,61.63
2022-09-07T05:20:34.888Z,61.76
2022-09-07T05:21:17.135Z,61.91
2022-09-07T05:21:50.251Z,62.01
2022-09-07T05:22:25.495Z,62.41
2022-09-07T05:23:01.647Z,62.74
2022-09-07T05:23:34.956Z,63.27
2022-09-07T05:24:08.304Z,62.99
2022-09-07T05:24:41.536Z,62.27
2022-09-07T05:25:15.419Z,61.17
2022-09-07T05:25:49.400Z,59.95
2022-09-07T05:26:25.029Z,58.35
2022-09-07T05:26:59.900Z,56.65
2022-09-07T05:27:33.087Z,55.59
2022-09-07T05:28:06.196Z,55.31
2022-09-07T05:28:39.492Z,55.31
2022-09-07T05:30:06.995Z,55.38
2022-09-07T05:31:34.547Z,56.56
2022-09-07T05:32:07.994Z,57.68
2022-09-07T05:32:45.507Z,58.35
2022-09-07T05:33:18.649Z,58.47
2022-09-07T05:34:49.667Z,58.92
2022-09-07T05:35:24.461Z,59.40
2022-09-07T05:35:59.849Z,59.71
2022-09-07T05:36:35.948Z,59.90
2022-09-07T05:37:10.780Z,60.10
2022-09-07T05:37:43.936Z,60.52
2022-09-07T05:38:17.189Z,60.74
2022-09-07T05:38:50.339Z,61.02
2022-09-07T05:39:24.302Z,61.31
2022-09-07T05:39:57.598Z,61.62
2022-09-07T05:40:35.126Z,61.82
2022-09-07T05:41:15.803Z,61.78
2022-09-07T05:41:48.973Z,61.90
2022-09-07T05:42:22.582Z,62.11
2022-09-07T05:42:55.959Z,62.31
2022-09-07T05:43:31.273Z,62.29
2022-09-07T05:44:59.927Z,63.82
2022-09-07T05:45:33.250Z,63.29
2022-09-07T05:46:06.853Z,62.63
2022-09-07T05:46:40.505Z,61.28
2022-09-07T05:47:14.179Z,59.93
2022-09-07T05:47:50.950Z,58.73
2022-09-07T05:48:24.224Z,56.94
2022-09-07T05:48:57.491Z,55.75
2022-09-07T05:49:30.950Z,55.35
2022-09-07T05:50:06.159Z,55.11
2022-09-07T05:50:39.251Z,55.27
2022-09-07T05:51:13.741Z,55.56
2022-09-07T05:51:47.296Z,55.94
2022-09-07T05:52:20.978Z,56.47
2022-09-07T05:52:54.212Z,57.06
2022-09-07T05:53:27.956Z,57.27
2022-09-07T05:54:01.406Z,57.76
2022-09-07T05:54:35.158Z,58.18
2022-09-07T05:55:28.898Z,58.69
2022-09-07T05:56:07.043Z,58.88
2022-09-07T05:56:40.524Z,59.51
2022-09-07T05:57:14.247Z,60.14
2022-09-07T05:57:47.326Z,60.56
2022-09-07T05:58:20.615Z,60.56
2022-09-07T05:58:53.767Z,60.75
2022-09-07T05:59:26.817Z,60.83
2022-09-07T06:00:00.038Z,60.92
2022-09-07T06:00:34.162Z,61.20
2022-09-07T06:01:13.223Z,61.11
2022-09-07T06:01:46.916Z,61.13
2022-09-07T06:02:20.593Z,61.24
2022-09-07T06:02:53.995Z,61.45
2022-09-07T06:03:27.399Z,61.63
2022-09-07T06:04:00.796Z,61.93
2022-09-07T06:04:34.161Z,62.07
2022-09-07T06:05:08.746Z,62.17
2022-09-07T06:05:41.895Z,62.37
2022-09-07T06:06:19.235Z,62.78
2022-09-07T06:07:20.114Z,63.59
2022-09-07T06:07:48.813Z,65.18
2022-09-07T06:08:22.075Z,62.85
2022-09-07T06:08:55.322Z,61.18
2022-09-07T06:09:30.488Z,59.81
2022-09-07T06:10:57.863Z,57.52
2022-09-07T06:11:31.117Z,56.29
2022-09-07T06:12:05.793Z,56.22
2022-09-07T06:12:39.148Z,56.19
2022-09-07T06:13:12.382Z,56.31
2022-09-07T06:13:45.959Z,56.45
2022-09-07T06:14:19.154Z,56.60
2022-09-07T06:14:52.397Z,57.03
2022-09-07T06:15:25.474Z,57.51
2022-09-07T06:16:02.627Z,57.95
2022-09-07T06:16:35.915Z,58.41
2022-09-07T06:17:09.159Z,58.50
2022-09-07T06:17:42.434Z,58.84
2022-09-07T06:18:15.617Z,59.09
2022-09-07T06:18:50.456Z,59.35
2022-09-07T06:19:23.717Z,59.57
2022-09-07T06:19:57.564Z,59.84
2022-09-07T06:20:31.497Z,60.13
2022-09-07T06:21:19.097Z,60.40
2022-09-07T06:21:52.428Z,60.64
2022-09-07T06:22:30.128Z,61.17
2022-09-07T06:23:04.035Z,61.44
2022-09-07T06:23:39.422Z,61.80
2022-09-07T06:24:12.599Z,61.56
2022-09-07T06:24:45.747Z,61.72
2022-09-07T06:25:19.217Z,61.82
2022-09-07T06:25:52.562Z,61.80
2022-09-07T06:26:25.716Z,61.66
2022-09-07T06:26:59.168Z,61.56
2022-09-07T06:27:32.255Z,61.27
2022-09-07T06:28:05.383Z,61.34
2022-09-07T06:28:41.536Z,61.48
2022-09-07T06:29:15.050Z,61.62
2022-09-07T06:29:48.236Z,61.66
2022-09-07T06:30:21.628Z,61.99
2022-09-07T06:30:59.652Z,62.22
2022-09-07T06:31:33.242Z,62.35
2022-09-07T06:32:59.698Z,63.72
2022-09-07T06:33:33.067Z,62.39
2022-09-07T06:34:06.429Z,61.18
2022-09-07T06:34:39.569Z,59.96
2022-09-07T06:35:13.511Z,58.39
2022-09-07T06:36:02.320Z,56.86
2022-09-07T06:36:35.450Z,56.11
2022-09-07T06:37:08.650Z,55.39
2022-09-07T06:37:42.751Z,55.35
2022-09-07T06:38:16.127Z,55.61
2022-09-07T06:38:50.568Z,56.04
2022-09-07T06:39:23.791Z,56.49
2022-09-07T06:39:57.161Z,56.84
2022-09-07T06:40:30.367Z,57.05
2022-09-07T06:41:59.656Z,57.22
2022-09-07T06:42:32.997Z,57.53
2022-09-07T06:43:06.223Z,57.90
2022-09-07T06:43:44.125Z,58.11
2022-09-07T06:44:19.590Z,58.08
2022-09-07T06:44:53.336Z,58.47
2022-09-07T06:45:28.688Z,58.64
2022-09-07T06:47:04.882Z,58.20
2022-09-07T06:47:39.235Z,58.67
2022-09-07T06:48:12.634Z,58.98
2022-09-07T06:48:45.807Z,59.19
2022-09-07T06:49:19.066Z,59.49
2022-09-07T06:49:52.247Z,59.91
2022-09-07T06:50:28.116Z,59.93
2022-09-07T06:51:01.977Z,59.90
2022-09-07T06:51:35.675Z,59.94
2022-09-07T06:52:08.961Z,59.76
2022-09-07T06:53:39.511Z,59.29
2022-09-07T06:55:08.986Z,59.73
2022-09-07T06:55:45.586Z,59.98
2022-09-07T06:56:19.746Z,60.02
2022-09-07T06:56:52.912Z,60.16
2022-09-07T06:57:27.469Z,60.22
2022-09-07T06:58:00.762Z,60.26
2022-09-07T06:58:37.011Z,60.27
2022-09-07T06:59:12.579Z,59.91
2022-09-07T06:59:45.809Z,59.82
2022-09-07T07:00:19.177Z,59.91
2022-09-07T07:00:53.006Z,59.90
2022-09-07T07:01:27.237Z,59.88
2022-09-07T07:02:00.648Z,60.08
2022-09-07T07:02:34.122Z,60.34
2022-09-07T07:03:07.264Z,60.41
2022-09-07T07:03:41.044Z,60.29
2022-09-07T07:04:14.500Z,60.11
2022-09-07T07:04:47.685Z,60.07
2022-09-07T07:05:21.118Z,60.18
2022-09-07T07:05:57.334Z,60.44
2022-09-07T07:06:35.310Z,60.42
2022-09-07T07:07:14.537Z,60.01
2022-09-07T07:07:47.770Z,59.89
2022-09-07T07:08:23.097Z,59.88
2022-09-07T07:08:56.261Z,59.53
2022-09-07T07:09:29.561Z,59.44
2022-09-07T07:10:02.794Z,59.39
2022-09-07T07:10:39.593Z,59.50
2022-09-07T07:11:16.242Z,59.73
2022-09-07T07:11:49.614Z,59.81
2022-09-07T07:12:58.582Z,59.81
2022-09-07T07:13:32.284Z,59.70
2022-09-07T07:14:05.777Z,59.83
2022-09-07T07:14:44.016Z,59.96
2022-09-07T07:15:18.296Z,60.21
2022-09-07T07:15:54.048Z,60.35
2022-09-07T07:16:27.566Z,60.44
2022-09-07T07:17:00.711Z,60.14
2022-09-07T07:17:33.927Z,59.70
2022-09-07T07:18:20.367Z,59.40
2022-09-07T07:18:58.317Z,59.37
2022-09-07T07:19:31.533Z,59.49
2022-09-07T07:20:05.403Z,59.71
2022-09-07T07:20:40.286Z,59.94
2022-09-07T07:21:15.750Z,60.09
2022-09-07T07:22:10.714Z,60.02
2022-09-07T07:22:46.718Z,59.91
2022-09-07T07:23:20.661Z,59.75
2022-09-07T07:23:54.244Z,59.66
2022-09-07T07:24:27.308Z,59.73
2022-09-07T07:25:00.377Z,59.63
2022-09-07T07:25:37.276Z,59.45
2022-09-07T07:26:12.168Z,59.44
2022-09-07T07:26:48.860Z,59.63
2022-09-07T07:27:22.389Z,59.61
2022-09-07T07:27:55.573Z,59.30
2022-09-07T07:29:23.911Z,58.69
2022-09-07T07:29:58.277Z,58.68
2022-09-07T07:30:31.582Z,58.49
2022-09-07T07:31:09.474Z,58.28
2022-09-07T07:31:44.437Z,58.01
2022-09-07T07:32:17.680Z,58.03
2022-09-07T07:32:50.873Z,58.24
2022-09-07T07:33:24.816Z,58.63
2022-09-07T07:33:58.181Z,59.30
2022-09-07T07:34:31.466Z,59.22
2022-09-07T07:35:05.706Z,58.86
2022-09-07T07:35:38.800Z,58.74
2022-09-07T07:36:18.076Z,58.72
2022-09-07T07:36:51.179Z,58.74
2022-09-07T07:37:28.016Z,58.74
2022-09-07T07:40:28.979Z,58.66
2022-09-07T07:42:01.602Z,58.15
2022-09-07T07:42:40.119Z,58.21
2022-09-07T07:43:13.543Z,58.44
2022-09-07T07:43:47.579Z,58.53
2022-09-07T07:44:21.573Z,58.54
2022-09-07T07:46:26.483Z,57.61
2022-09-07T07:46:59.905Z,57.35
2022-09-07T07:47:33.314Z,57.20
2022-09-07T07:48:06.947Z,57.15
2022-09-07T07:48:40.230Z,57.13
2022-09-07T07:49:13.767Z,57.03
2022-09-07T07:49:47.198Z,57.03
2022-09-07T07:50:35.744Z,57.03
2022-09-07T07:51:12.350Z,57.09
2022-09-07T07:53:41.651Z,57.21
2022-09-07T07:54:15.651Z,57.18
2022-09-07T07:54:48.778Z,57.34
2022-09-07T07:56:15.208Z,57.56
2022-09-07T07:56:48.248Z,57.24
2022-09-07T07:57:21.497Z,57.19
2022-09-07T07:57:54.585Z,57.01
2022-09-07T07:58:28.715Z,56.97
2022-09-07T07:59:02.036Z,57.12
2022-09-07T07:59:35.527Z,57.19
2022-09-07T08:00:09.627Z,57.22
2022-09-07T08:00:58.365Z,57.40
2022-09-07T08:01:31.699Z,57.46
2022-09-07T08:02:09.191Z,57.37
2022-09-07T08:02:42.486Z,56.86
2022-09-07T08:03:15.778Z,56.91
2022-09-07T08:03:49.360Z,56.98
2022-09-07T08:04:23.406Z,57.05
2022-09-07T08:04:56.626Z,57.22
2022-09-07T08:05:29.727Z,57.30
2022-09-07T08:06:11.780Z,57.39
2022-09-07T08:06:44.921Z,57.41
2022-09-07T08:07:18.053Z,57.17
2022-09-07T08:07:51.250Z,57.05
2022-09-07T08:08:24.450Z,57.41
2022-09-07T08:08:57.580Z,57.48
2022-09-07T08:09:30.745Z,57.25
2022-09-07T08:10:04.030Z,57.15
2022-09-07T08:10:37.309Z,57.08
2022-09-07T08:11:19.358Z,57.05
2022-09-07T08:11:52.656Z,57.15
2022-09-07T08:12:29.704Z,57.22